Time;durP1;ratioP1;P1;durP2;ratioP2;P2;SDS_P1;SDS_P2;PMS_P1;PMS_P2;Temp;Humidity;BMP_temperature;BMP_pressure;BME280_temperature;BME280_humidity;BME280_pressure;Samples;Min_cycle;Max_cycle;Signal;HPM_P1;HPM_P2
2022/08/07 00:02:23;;;;;;;6.62;3.45;;;;;;;19.44;66.02;100535.97;1856621;77;21054;-69
2022/08/07 00:04:52;;;;;;;6.45;3.30;;;;;;;19.39;66.26;100536.84;1856623;77;21189;-69
2022/08/07 00:07:22;;;;;;;10.45;3.62;;;;;;;19.37;66.17;100549.46;1856482;77;21106;-69
2022/08/07 00:09:51;;;;;;;16.12;4.12;;;;;;;19.38;66.22;100543.14;1856632;77;21534;-68
2022/08/07 00:12:19;;;;;;;9.58;3.80;;;;;;;19.39;66.26;100542.18;1856662;77;21058;-69
2022/08/07 00:14:48;;;;;;;7.25;4.12;;;;;;;19.35;66.23;100549.58;1856748;77;21054;-68
2022/08/07 00:17:16;;;;;;;9.63;3.98;;;;;;;19.31;66.01;100544.12;1856647;77;21058;-68
2022/08/07 00:19:46;;;;;;;7.03;3.45;;;;;;;19.21;66.50;100553.32;1856580;77;21034;-68
2022/08/07 00:22:15;;;;;;;8.45;3.27;;;;;;;19.16;66.73;100548.82;1856712;77;21582;-68
2022/08/07 00:24:44;;;;;;;11.00;3.83;;;;;;;19.10;67.01;100548.81;1856728;77;21038;-68
2022/08/07 00:27:12;;;;;;;8.90;4.00;;;;;;;19.03;67.44;100548.95;1856642;77;21046;-68
2022/08/07 00:29:41;;;;;;;7.20;3.72;;;;;;;18.97;68.14;100545.91;1856556;77;21116;-68
2022/08/07 00:32:11;;;;;;;7.28;3.65;;;;;;;18.96;68.09;100557.06;1856682;77;21109;-68
2022/08/07 00:34:40;;;;;;;16.25;4.50;;;;;;;18.93;67.61;100552.45;1856746;77;21161;-68
2022/08/07 00:37:09;;;;;;;14.47;4.33;;;;;;;18.85;67.51;100552.55;1856596;77;21019;-68
2022/08/07 00:39:37;;;;;;;8.85;3.55;;;;;;;18.90;67.68;100549.05;1856656;77;21053;-68
2022/08/07 00:42:07;;;;;;;18.62;4.15;;;;;;;18.87;67.79;100551.95;1856622;77;21168;-68
2022/08/07 00:44:36;;;;;;;12.45;4.50;;;;;;;18.89;67.84;100553.17;1856714;77;21492;-68
2022/08/07 00:47:07;;;;;;;13.30;4.00;;;;;;;18.88;68.33;100552.79;1856884;77;21536;-68
2022/08/07 00:49:36;;;;;;;9.55;3.62;;;;;;;18.84;68.24;100554.84;1856842;77;21081;-67
2022/08/07 00:52:09;;;;;;;6.47;3.65;;;;;;;18.84;68.33;100554.84;1856666;77;21097;-68
2022/08/07 00:54:38;;;;;;;14.07;3.83;;;;;;;18.86;68.45;100568.91;1856623;77;21050;-68
2022/08/07 00:57:08;;;;;;;10.38;3.80;;;;;;;18.80;68.16;100564.02;1856846;77;21042;-68
2022/08/07 00:59:38;;;;;;;8.93;3.80;;;;;;;18.74;67.92;100564.50;1856880;77;21505;-68
2022/08/07 01:02:08;;;;;;;9.80;4.50;;;;;;;18.67;67.91;100566.77;1856813;77;21627;-68
2022/08/07 01:04:38;;;;;;;8.23;3.85;;;;;;;18.66;68.38;100563.72;1856845;77;21639;-68
2022/08/07 01:07:07;;;;;;;10.85;3.70;;;;;;;18.62;68.39;100565.42;1856674;77;21046;-67
2022/08/07 01:09:35;;;;;;;8.08;3.90;;;;;;;18.56;68.56;100555.23;1856663;77;21082;-68
2022/08/07 01:12:05;;;;;;;8.25;4.10;;;;;;;18.62;68.93;100557.42;1856760;77;21046;-67
2022/08/07 01:14:34;;;;;;;10.03;3.62;;;;;;;18.66;69.17;100554.88;1856693;77;21156;-68
2022/08/07 01:17:03;;;;;;;7.58;3.17;;;;;;;18.74;69.15;100548.95;1856736;77;21047;-68
2022/08/07 01:19:33;;;;;;;9.50;3.77;;;;;;;18.83;69.15;100543.82;1856798;77;21501;-69
2022/08/07 01:22:03;;;;;;;7.05;3.72;;;;;;;18.81;69.14;100547.09;1856783;77;21515;-68
2022/08/07 01:24:35;;;;;;;11.40;4.50;;;;;;;18.78;69.08;100543.78;1856486;77;21575;-67
2022/08/07 01:27:05;;;;;;;10.18;4.30;;;;;;;18.71;69.27;100547.39;1856808;77;21050;-68
2022/08/07 01:29:34;;;;;;;9.75;4.37;;;;;;;18.71;69.28;100547.39;1856835;77;21599;-68
2022/08/07 01:32:04;;;;;;;12.30;3.33;;;;;;;18.77;69.39;100540.23;1856739;77;21563;-68
2022/08/07 01:34:33;;;;;;;9.28;3.95;;;;;;;18.74;69.12;100544.50;1856829;77;21195;-68
2022/08/07 01:37:12;;;;;;;8.53;3.65;;;;;;;18.69;69.05;100545.33;1856547;76;21081;-68
2022/08/07 01:39:41;;;;;;;7.67;3.33;;;;;;;18.59;69.27;100545.19;1856693;77;21106;-67
2022/08/07 01:42:14;;;;;;;8.75;3.20;;;;;;;18.55;69.60;100549.52;1856620;77;21100;-68
2022/08/07 01:44:43;;;;;;;5.83;3.60;;;;;;;18.56;69.81;100557.89;1856737;77;21018;-68
2022/08/07 01:47:12;;;;;;;7.80;3.83;;;;;;;18.56;70.03;100555.23;1856810;77;21082;-67
2022/08/07 01:49:42;;;;;;;6.47;3.75;;;;;;;18.52;70.06;100555.45;1856811;77;21555;-67
2022/08/07 01:52:12;;;;;;;6.70;3.52;;;;;;;18.44;69.91;100555.19;1856801;77;21054;-67
2022/08/07 01:54:42;;;;;;;6.12;3.60;;;;;;;18.45;70.24;100554.20;1863039;77;21512;-68
2022/08/07 01:57:20;;;;;;;8.53;3.52;;;;;;;18.56;70.30;100561.41;1863084;77;21180;-68
2022/08/07 02:00:08;;;;;;;8.98;3.72;;;;;;;18.63;70.27;100559.13;1863318;77;21139;-68
2022/08/07 02:02:53;;;;;;;7.17;3.50;;;;;;;18.66;70.18;100566.88;1861479;77;21098;-68
2022/08/07 02:05:32;;;;;;;;;;;;;;;18.62;70.19;100568.92;1864930;77;21082;-68
2022/08/07 02:08:04;;;;;;;11.75;3.55;;;;;;;18.58;70.42;100561.29;1863354;77;20123;-68
2022/08/07 02:10:36;;;;;;;10.18;3.83;;;;;;;18.50;70.39;100564.54;1862186;77;21113;-68
2022/08/07 02:13:07;;;;;;;9.23;3.50;;;;;;;18.49;70.47;100577.00;1863287;77;21133;-68
2022/08/07 02:15:39;;;;;;;14.13;3.50;;;;;;;18.51;70.64;100571.06;1863131;77;21626;-69
2022/08/07 02:18:11;;;;;;;9.85;4.00;;;;;;;18.56;70.68;100569.89;1863205;77;21074;-69
2022/08/07 02:20:42;;;;;;;6.90;3.27;;;;;;;18.47;70.37;100574.94;1863298;77;21152;-68
2022/08/07 02:23:13;;;;;;;8.53;3.58;;;;;;;18.45;70.37;100577.36;1863280;77;21050;-67
2022/08/07 02:25:44;;;;;;;7.67;3.67;;;;;;;18.42;70.58;100573.58;1863343;77;21055;-67
2022/08/07 02:28:16;;;;;;;6.67;3.30;;;;;;;18.50;70.71;100575.20;1863330;77;21046;-68
2022/08/07 02:30:46;;;;;;;7.15;3.25;;;;;;;18.54;70.48;100579.83;1863253;77;21044;-68
2022/08/07 02:33:18;;;;;;;5.92;3.33;;;;;;;18.58;70.37;100587.47;1863489;77;21085;-68
2022/08/07 02:35:48;;;;;;;6.05;3.58;;;;;;;18.64;70.45;100592.81;1863484;77;21619;-67
2022/08/07 02:38:21;;;;;;;8.18;3.42;;;;;;;18.61;70.33;100595.70;1863316;77;21042;-67
2022/08/07 02:40:50;;;;;;;9.00;3.50;;;;;;;18.56;70.39;100594.73;1863326;77;21069;-68
2022/08/07 02:43:20;;;;;;;11.03;4.60;;;;;;;18.51;70.48;100596.89;1863173;77;21120;-68
2022/08/07 02:45:51;;;;;;;9.78;3.65;;;;;;;18.55;70.47;100594.34;1863411;77;21022;-67
2022/08/07 02:48:20;;;;;;;14.85;3.72;;;;;;;18.49;70.56;100590.33;1863444;77;21021;-68
2022/08/07 02:50:52;;;;;;;13.78;5.70;;;;;;;18.59;70.44;100598.97;1863476;77;21593;-68
2022/08/07 02:53:30;;;;;;;9.93;3.70;;;;;;;18.68;70.52;100599.61;1862806;77;21086;-68
2022/08/07 02:56:01;;;;;;;9.73;3.85;;;;;;;18.74;70.65;100605.84;1856670;77;21489;-68
2022/08/07 02:58:33;;;;;;;12.30;4.85;;;;;;;18.78;70.71;100604.63;1856843;77;21051;-68
2022/08/07 03:01:03;;;;;;;9.23;4.50;;;;;;;18.87;70.82;100606.63;1856798;77;21022;-68
2022/08/07 03:03:34;;;;;;;9.68;4.58;;;;;;;19.01;70.88;100614.06;1856613;77;21050;-68
2022/08/07 03:06:04;;;;;;;6.80;4.42;;;;;;;19.12;70.85;100614.08;1856725;77;21049;-69
2022/08/07 03:08:33;;;;;;;11.05;4.37;;;;;;;19.26;70.55;100614.37;1856766;77;21039;-68
2022/08/07 03:11:03;;;;;;;7.80;3.70;;;;;;;19.35;70.35;100611.44;1856742;77;21441;-68
2022/08/07 03:13:33;;;;;;;7.70;3.98;;;;;;;19.41;70.37;100612.32;1856576;77;21081;-67
2022/08/07 03:16:03;;;;;;;10.30;3.72;;;;;;;19.51;70.33;100610.61;1856686;77;21043;-67
2022/08/07 03:18:32;;;;;;;8.73;3.90;;;;;;;19.63;70.22;100619.00;1856714;77;21042;-67
2022/08/07 03:21:02;;;;;;;9.93;3.87;;;;;;;19.80;70.15;100615.02;1856778;77;21065;-67
2022/08/07 03:23:32;;;;;;;10.38;3.98;;;;;;;19.89;69.87;100616.11;1856732;77;21145;-67
2022/08/07 03:26:03;;;;;;;6.37;3.70;;;;;;;20.03;69.81;100621.20;1856820;77;21108;-67
2022/08/07 03:28:35;;;;;;;13.38;3.27;;;;;;;20.29;69.58;100617.36;1856721;77;21116;-67
2022/08/07 03:31:18;;;;;;;6.35;3.52;;;;;;;20.36;69.31;100619.89;1856714;77;21057;-67
2022/08/07 03:34:00;;;;;;;10.95;4.15;;;;;;;20.44;69.04;100618.30;1856709;77;21073;-67
2022/08/07 03:36:31;;;;;;;32.65;16.52;;;;;;;20.56;68.83;100622.26;1856726;77;21069;-69
2022/08/07 03:39:06;;;;;;;14.60;7.05;;;;;;;20.69;68.69;100624.30;1856678;77;21046;-68
2022/08/07 03:41:37;;;;;;;15.83;7.62;;;;;;;20.78;68.37;100630.22;1856554;77;21136;-68
2022/08/07 03:44:06;;;;;;;10.38;4.40;;;;;;;20.93;68.22;100621.88;1856704;77;21050;-68
2022/08/07 03:46:36;;;;;;;14.78;4.75;;;;;;;21.08;68.05;100628.63;1856721;77;21054;-67
2022/08/07 03:49:06;;;;;;;7.25;4.00;;;;;;;21.21;67.79;100630.61;1856810;77;21046;-67
2022/08/07 03:51:37;;;;;;;10.05;3.20;;;;;;;21.32;67.54;100632.84;1856448;77;21114;-67
2022/08/07 03:54:06;;;;;;;10.38;3.42;;;;;;;21.32;66.95;100621.66;1855391;77;21541;-67
2022/08/07 03:56:37;;;;;;;8.88;2.87;;;;;;;21.40;66.47;100622.33;1847744;78;21137;-67
2022/08/07 03:59:09;;;;;;;7.95;2.95;;;;;;;21.52;66.02;100623.95;1847754;78;21575;-67
2022/08/07 04:01:44;;;;;;;7.55;2.70;;;;;;;21.65;65.51;100622.89;1847879;78;21458;-69
2022/08/07 04:04:14;;;;;;;5.65;3.05;;;;;;;21.79;64.81;100623.37;1847845;78;21051;-68
2022/08/07 04:06:43;;;;;;;7.83;2.70;;;;;;;21.91;64.14;100615.23;1847693;78;21124;-68
2022/08/07 04:09:14;;;;;;;7.80;3.35;;;;;;;22.07;63.47;100626.78;1847504;78;21546;-68
2022/08/07 04:11:45;;;;;;;9.25;3.27;;;;;;;22.32;63.00;100626.30;1847662;78;21493;-69
2022/08/07 04:14:14;;;;;;;6.90;3.12;;;;;;;22.59;62.57;100627.45;1847725;78;21596;-69
2022/08/07 04:16:44;;;;;;;8.60;3.92;;;;;;;22.87;62.12;100626.23;1847820;78;21575;-69
2022/08/07 04:19:12;;;;;;;8.05;2.77;;;;;;;23.17;61.83;100632.48;1847693;78;21580;-69
2022/08/07 04:21:41;;;;;;;6.55;3.15;;;;;;;23.34;61.10;100633.05;1847874;78;21151;-69
2022/08/07 04:24:11;;;;;;;6.47;2.70;;;;;;;23.52;60.68;100629.12;1847734;78;21027;-69
2022/08/07 04:26:41;;;;;;;7.90;2.40;;;;;;;23.61;59.92;100628.72;1847797;78;21078;-69
2022/08/07 04:29:10;;;;;;;6.92;2.80;;;;;;;23.73;59.62;100637.45;1847774;78;21473;-69
2022/08/07 04:31:39;;;;;;;9.95;3.55;;;;;;;23.95;59.46;100630.88;1847715;78;21059;-68
2022/08/07 04:34:09;;;;;;;10.15;3.40;;;;;;;24.22;59.26;100637.58;1847781;78;21074;-69
2022/08/07 04:36:39;;;;;;;7.17;2.87;;;;;;;24.43;58.80;100632.41;1847882;78;21489;-68
2022/08/07 04:39:09;;;;;;;7.42;2.80;;;;;;;24.52;58.22;100634.22;1847836;78;21102;-68
2022/08/07 04:41:38;;;;;;;5.83;3.17;;;;;;;24.68;57.73;100625.94;1847769;78;21102;-68
2022/08/07 04:44:08;;;;;;;7.67;3.37;;;;;;;24.80;57.39;100626.89;1847644;78;21046;-68
2022/08/07 04:47:04;;;;;;;5.47;3.00;;;;;;;25.10;57.41;100633.36;1846960;78;21509;-69
2022/08/07 04:49:44;;;;;;;6.42;3.33;;;;;;;25.24;56.49;100635.02;1847726;77;21082;-69
2022/08/07 04:52:41;;;;;;;9.23;2.62;;;;;;;25.27;55.92;100632.52;1847736;78;21086;-70
2022/08/07 04:55:19;;;;;;;9.08;3.08;;;;;;;25.39;55.78;100627.70;1847934;77;21086;-68
2022/08/07 04:58:06;;;;;;;11.28;3.00;;;;;;;25.65;55.72;100623.63;1847832;78;21129;-67
2022/08/07 05:00:40;;;;;;;8.35;2.55;;;;;;;25.93;55.20;100631.53;1847729;78;21070;-70
2022/08/07 05:03:12;;;;;;;4.53;2.80;;;;;;;26.09;54.73;100630.23;1845105;78;21118;-69
2022/08/07 05:05:49;;;;;;;5.45;2.58;;;;;;;26.20;54.00;100629.93;1846988;78;21050;-68
2022/08/07 05:08:27;;;;;;;10.28;2.90;;;;;;;26.37;53.86;100621.88;1846724;78;21207;-68
2022/08/07 05:11:07;;;;;;;6.58;2.55;;;;;;;26.71;53.80;100626.35;1847825;78;21047;-69
2022/08/07 05:13:39;;;;;;;6.47;2.22;;;;;;;26.92;52.71;100625.32;1847688;78;21054;-68
2022/08/07 05:16:11;;;;;;;5.80;2.50;;;;;;;27.00;52.08;100623.11;1847924;78;21094;-69
2022/08/07 05:18:55;;;;;;;7.33;1.93;;;;;;;27.17;51.65;100634.77;1848054;78;21075;-69
2022/08/07 05:21:27;;;;;;;5.53;2.37;;;;;;;27.28;51.17;100639.85;1847719;78;21082;-70
2022/08/07 05:24:01;;;;;;;4.05;2.10;;;;;;;27.38;50.62;100637.47;1847776;78;21062;-69
2022/08/07 05:26:33;;;;;;;10.95;2.95;;;;;;;27.37;50.05;100635.77;1847753;78;21066;-69
2022/08/07 05:29:09;;;;;;;3.65;1.90;;;;;;;27.43;49.98;100629.17;1847782;78;21070;-69
2022/08/07 05:31:41;;;;;;;3.92;1.77;;;;;;;27.57;49.56;100632.17;1847908;77;21050;-69
2022/08/07 05:34:14;;;;;;;3.20;1.72;;;;;;;27.56;49.29;100631.34;1847698;77;21189;-69
2022/08/07 05:36:50;;;;;;;4.03;2.22;;;;;;;27.60;49.06;100625.91;1847984;78;21067;-68
2022/08/07 05:39:22;;;;;;;5.45;2.20;;;;;;;27.70;48.96;100623.86;1846620;78;21050;-68
2022/08/07 05:41:52;;;;;;;4.75;2.27;;;;;;;27.84;49.15;100624.14;1847750;78;21050;-67
2022/08/07 05:44:21;;;;;;;4.35;1.92;;;;;;;28.09;49.01;100629.80;1847714;78;21509;-67
2022/08/07 05:46:51;;;;;;;6.40;2.20;;;;;;;28.44;48.73;100625.34;1847753;78;21148;-68
2022/08/07 05:49:22;;;;;;;2.72;1.50;;;;;;;28.69;47.80;100613.86;1847582;78;21587;-68
2022/08/07 05:51:52;;;;;;;5.95;1.85;;;;;;;28.71;46.87;100622.64;1847754;78;21047;-68
2022/08/07 05:54:22;;;;;;;5.87;2.00;;;;;;;28.83;47.04;100621.20;1847715;78;21502;-68
2022/08/07 05:56:54;;;;;;;10.30;2.65;;;;;;;29.05;47.04;100615.94;1853381;77;21165;-69
2022/08/07 05:59:25;;;;;;;5.25;1.65;;;;;;;29.28;46.12;100615.05;1856758;77;21125;-69
2022/08/07 06:01:58;;;;;;;7.20;1.92;;;;;;;29.50;45.83;100616.00;1856604;77;21532;-68
2022/08/07 06:04:28;;;;;;;5.75;1.50;;;;;;;29.72;45.73;100612.86;1856687;77;21148;-68
2022/08/07 06:06:58;;;;;;;4.42;1.70;;;;;;;29.90;45.21;100607.91;1856759;77;21132;-69
2022/08/07 06:09:27;;;;;;;5.03;1.80;;;;;;;30.01;44.54;100614.72;1856541;77;21069;-70
2022/08/07 06:11:57;;;;;;;10.80;2.58;;;;;;;29.97;44.09;100614.26;1856863;77;21624;-68
2022/08/07 06:14:27;;;;;;;6.35;1.60;;;;;;;30.11;43.98;100614.41;1856707;77;21078;-67
2022/08/07 06:16:57;;;;;;;7.25;1.98;;;;;;;30.27;43.80;100620.09;1856684;77;21161;-68
2022/08/07 06:19:29;;;;;;;2.62;1.60;;;;;;;30.30;43.05;100608.34;1856703;77;21058;-68
2022/08/07 06:21:58;;;;;;;5.33;1.85;;;;;;;30.37;42.70;100603.02;1856531;77;21489;-68
2022/08/07 06:24:27;;;;;;;3.20;1.32;;;;;;;30.46;41.83;100605.10;1856764;77;21157;-68
2022/08/07 06:26:56;;;;;;;1.40;0.98;;;;;;;30.53;41.28;100612.80;1856766;77;21132;-68
2022/08/07 06:29:29;;;;;;;4.28;1.20;;;;;;;30.44;40.85;100606.64;1856627;77;21121;-68
2022/08/07 06:31:57;;;;;;;3.12;1.35;;;;;;;30.53;40.85;100610.91;1856598;77;21603;-68
2022/08/07 06:34:27;;;;;;;6.03;1.95;;;;;;;30.62;40.64;100618.42;1856585;77;21102;-69
2022/08/07 06:36:56;;;;;;;2.55;1.10;;;;;;;30.72;40.20;100618.92;1856748;77;21038;-70
2022/08/07 06:39:31;;;;;;;46.30;18.62;;;;;;;30.65;39.32;100606.31;1856576;77;21109;-69
2022/08/07 06:42:06;;;;;;;19.32;6.95;;;;;;;30.72;39.75;100616.73;1856633;77;21152;-69
2022/08/07 06:44:54;;;;;;;21.93;2.10;;;;;;;30.92;39.67;100609.61;1856660;77;21169;-68
2022/08/07 06:47:24;;;;;;;6.45;2.55;;;;;;;31.09;38.97;100612.88;1856726;77;21018;-69
2022/08/07 06:49:53;;;;;;;1.75;1.15;;;;;;;31.11;38.25;100608.08;1856651;77;21421;-67
2022/08/07 06:52:24;;;;;;;8.20;3.22;;;;;;;31.14;37.77;100610.41;1856682;77;21525;-68
2022/08/07 06:54:54;;;;;;;2.25;1.02;;;;;;;31.10;37.89;100606.41;1856691;77;21042;-68
2022/08/07 06:57:25;;;;;;;5.08;1.72;;;;;;;31.33;38.15;100610.74;1851670;77;21556;-68
2022/08/07 06:59:56;;;;;;;3.10;1.12;;;;;;;31.46;37.68;100610.81;1847901;78;21502;-68
2022/08/07 07:02:27;;;;;;;6.47;1.35;;;;;;;31.60;37.03;100613.66;1847924;78;21026;-68
2022/08/07 07:04:56;;;;;;;2.72;1.00;;;;;;;31.72;36.67;100618.83;1847790;78;21078;-69
2022/08/07 07:07:25;;;;;;;3.87;1.80;;;;;;;31.71;35.81;100612.55;1847724;78;21521;-68
2022/08/07 07:09:54;;;;;;;2.55;1.35;;;;;;;31.79;35.83;100610.17;1847688;77;21563;-69
2022/08/07 07:12:42;;;;;;;2.50;0.88;;;;;;;31.87;35.86;100616.83;1847774;78;21484;-68
2022/08/07 07:15:17;;;;;;;1.50;0.95;;;;;;;32.07;36.12;100618.27;1847385;78;21031;-68
2022/08/07 07:18:07;;;;;;;2.12;0.90;;;;;;;32.27;34.91;100616.97;1846158;78;21137;-67
2022/08/07 07:20:41;;;;;;;4.10;0.70;;;;;;;32.33;34.64;100605.77;1846827;78;21058;-67
2022/08/07 07:23:11;;;;;;;2.75;0.90;;;;;;;32.37;33.57;100606.20;1846333;78;21063;-67
2022/08/07 07:25:42;;;;;;;3.35;0.85;;;;;;;32.48;33.79;100613.25;1847883;78;21594;-67
2022/08/07 07:28:23;;;;;;;0.90;0.65;;;;;;;32.76;33.88;100612.77;1848043;78;21196;-68
2022/08/07 07:31:00;;;;;;;2.65;0.72;;;;;;;32.84;33.15;100602.49;1847647;78;21128;-68
2022/08/07 07:33:32;;;;;;;3.02;0.95;;;;;;;32.89;33.07;100603.24;1847419;78;21082;-67
2022/08/07 07:36:03;;;;;;;4.65;1.00;;;;;;;32.81;32.27;100615.20;1847837;78;21588;-67
2022/08/07 07:38:33;;;;;;;1.98;0.50;;;;;;;32.82;31.96;100606.49;1847740;78;21062;-67
2022/08/07 07:41:04;;;;;;;3.00;0.72;;;;;;;32.72;31.61;100603.33;1847786;78;21047;-69
2022/08/07 07:43:35;;;;;;;1.20;0.70;;;;;;;32.74;31.53;100610.77;1848083;78;21130;-68
2022/08/07 07:46:06;;;;;;;1.12;0.70;;;;;;;32.98;32.05;100595.16;1847906;77;21062;-68
2022/08/07 07:48:36;;;;;;;1.90;0.70;;;;;;;33.14;31.62;100612.16;1847826;78;21050;-68
2022/08/07 07:51:06;;;;;;;3.67;0.60;;;;;;;33.08;31.30;100591.45;1847768;78;21493;-68
2022/08/07 07:53:38;;;;;;;0.72;0.50;;;;;;;32.96;31.50;100599.13;1847744;78;21043;-68
2022/08/07 07:56:09;;;;;;;4.00;1.30;;;;;;;33.02;31.44;100602.39;1847975;78;21124;-68
2022/08/07 07:58:39;;;;;;;3.95;0.68;;;;;;;33.14;31.18;100587.08;1847800;78;21062;-68
2022/08/07 08:01:10;;;;;;;11.65;1.42;;;;;;;33.30;31.05;100609.52;1847813;77;21454;-70
2022/08/07 08:03:40;;;;;;;7.10;0.85;;;;;;;33.36;30.16;100601.30;1847971;78;21047;-68
2022/08/07 08:06:10;;;;;;;4.50;0.90;;;;;;;33.44;29.57;100603.81;1847693;78;21480;-67
2022/08/07 08:08:41;;;;;;;1.87;0.88;;;;;;;33.32;29.75;100605.52;1847712;78;21529;-67
2022/08/07 08:11:11;;;;;;;1.10;0.60;;;;;;;33.23;30.07;100601.34;1847721;78;21098;-68
2022/08/07 08:13:42;;;;;;;3.20;0.70;;;;;;;33.32;30.29;100604.44;1847747;78;21548;-67
2022/08/07 08:16:15;;;;;;;2.60;0.83;;;;;;;33.46;30.18;100604.44;1846212;78;21063;-67
2022/08/07 08:18:45;;;;;;;5.50;1.30;;;;;;;33.63;30.14;100599.34;1847798;78;21071;-68
2022/08/07 08:27:04;;;;;;;5.87;1.60;;;;;;;34.11;29.88;100600.83;1847748;78;21039;-68
2022/08/07 08:29:36;;;;;;;3.77;1.05;;;;;;;34.40;29.83;100600.80;1847787;78;21564;-67
2022/08/07 08:32:06;;;;;;;6.90;1.03;;;;;;;34.48;29.33;100598.31;1848000;78;21125;-67
2022/08/07 08:34:37;;;;;;;9.93;1.40;;;;;;;34.40;28.76;100593.95;1847797;78;21355;-67
2022/08/07 08:37:08;;;;;;;10.53;2.25;;;;;;;34.43;29.04;100598.96;1847712;78;21023;-67
2022/08/07 08:39:38;;;;;;;9.50;1.75;;;;;;;34.48;29.08;100592.84;1847583;78;21523;-67
2022/08/07 08:42:25;;;;;;;4.92;1.12;;;;;;;34.57;28.87;100595.62;1847782;78;21055;-67
2022/08/07 08:45:05;;;;;;;2.95;1.10;;;;;;;34.33;28.34;100592.34;1847758;78;21133;-67
2022/08/07 08:47:54;;;;;;;3.47;1.15;;;;;;;34.21;28.64;100595.77;1847014;77;21517;-67
2022/08/07 08:50:28;;;;;;;1.32;0.93;;;;;;;34.10;28.89;100590.95;1847847;78;21426;-67
2022/08/07 08:53:14;;;;;;;2.60;0.85;;;;;;;34.12;28.96;100592.93;1847790;78;21116;-67
2022/08/07 08:55:46;;;;;;;7.75;1.60;;;;;;;34.22;28.59;100591.97;1847653;78;21054;-67
2022/08/07 08:58:17;;;;;;;12.03;1.33;;;;;;;34.19;28.71;100593.77;1846016;77;21086;-68
2022/08/07 09:00:54;;;;;;;17.83;1.63;;;;;;;34.43;29.12;100591.30;1847990;78;21067;-67
2022/08/07 09:03:26;;;;;;;3.02;0.82;;;;;;;34.34;27.46;100585.25;1847475;78;21160;-68
2022/08/07 09:06:09;;;;;;;6.33;1.10;;;;;;;34.34;27.46;100585.25;1847081;78;21031;-67
2022/08/07 09:09:02;;;;;;;7.25;1.10;;;;;;;34.26;28.36;100594.27;1847712;78;21117;-67
2022/08/07 09:11:43;;;;;;;;;;;;;;;34.35;28.78;100592.41;1850164;78;21611;-67
2022/08/07 09:14:14;;;;;;;9.23;1.12;;;;;;;34.63;28.56;100587.05;1847810;78;20127;-67
2022/08/07 09:16:55;;;;;;;2.90;0.97;;;;;;;34.55;28.61;100590.91;1818720;78;21055;-67
2022/08/07 09:19:41;;;;;;;2.33;1.00;;;;;;;34.49;28.33;100578.64;1847012;78;21126;-67
2022/08/07 09:22:31;;;;;;;2.25;0.90;;;;;;;34.41;28.47;100585.22;1847370;78;21058;-67
2022/08/07 09:25:08;;;;;;;6.05;1.00;;;;;;;34.41;28.47;100585.22;1845988;77;21576;-67
2022/08/07 09:28:01;;;;;;;2.87;1.30;;;;;;;34.31;28.98;100589.81;1847673;78;21529;-67
2022/08/07 09:30:33;;;;;;;6.90;0.95;;;;;;;34.58;28.24;100590.47;1847808;78;21418;-67
2022/08/07 09:33:40;;;;;;;0.83;0.50;;;;;;;34.58;28.24;100590.47;1841488;78;21132;-67
2022/08/07 09:36:20;;;;;;;4.70;0.90;;;;;;;34.38;28.31;100599.32;1847522;78;21568;-66
2022/08/07 09:39:14;;;;;;;8.95;1.27;;;;;;;34.43;28.55;100603.60;1846897;78;21058;-67
2022/08/07 09:42:19;;;;;;;6.67;1.00;;;;;;;34.54;28.08;100590.58;1847914;78;21043;-67
2022/08/07 09:44:54;;;;;;;3.30;1.12;;;;;;;34.54;28.08;100590.58;1847764;78;21610;-67
2022/08/07 09:47:37;;;;;;;3.55;0.98;;;;;;;34.49;28.22;100596.41;1847794;78;21121;-67
2022/08/07 09:50:25;;;;;;;2.22;0.90;;;;;;;34.33;28.40;100584.14;1847107;78;21055;-67
2022/08/07 09:53:09;;;;;;;4.20;0.85;;;;;;;34.20;28.64;100598.19;1845090;77;21058;-67
2022/08/07 09:55:56;;;;;;;0.85;0.50;;;;;;;34.05;28.66;100590.79;1847885;78;21051;-67
2022/08/07 09:58:31;;;;;;;2.22;0.93;;;;;;;34.05;28.66;100590.79;1847720;78;21530;-67
2022/08/07 10:01:19;;;;;;;10.63;1.07;;;;;;;33.92;28.57;100608.09;1844166;78;21211;-68
2022/08/07 10:04:22;;;;;;;6.30;0.80;;;;;;;33.75;29.01;100596.79;1847855;78;21458;-68
2022/08/07 10:07:06;;;;;;;4.22;1.17;;;;;;;33.71;29.29;100596.09;1847654;78;21834;-68
2022/08/07 10:09:40;;;;;;;1.52;0.90;;;;;;;33.60;28.91;100583.91;1846343;78;21063;-68
2022/08/07 10:12:30;;;;;;;2.85;0.95;;;;;;;33.40;29.32;100593.02;1847765;77;21050;-68
2022/08/07 10:15:32;;;;;;;1.32;0.62;;;;;;;33.40;29.72;100589.43;1772667;80;21517;-68
2022/08/07 10:18:15;;;;;;;2.22;0.90;;;;;;;33.42;29.85;100585.96;1840646;78;21579;-67
2022/08/07 10:20:57;;;;;;;3.30;1.23;;;;;;;33.37;29.84;100591.25;1846832;78;21035;-68
2022/08/07 10:23:49;;;;;;;10.35;3.10;;;;;;;33.34;30.16;100583.48;1847299;78;21356;-68
2022/08/07 10:26:35;;;;;;;9.73;0.93;;;;;;;33.36;30.27;100580.84;1848075;78;21050;-68
2022/08/07 10:29:25;;;;;;;8.83;1.70;;;;;;;33.51;30.49;100578.38;1847717;78;21051;-68
2022/08/07 10:32:18;;;;;;;3.05;0.93;;;;;;;33.50;30.49;100574.00;1846489;78;21537;-68
2022/08/07 10:35:06;;;;;;;5.28;1.20;;;;;;;33.39;30.46;100579.05;1845694;78;21055;-68
2022/08/07 10:37:38;;;;;;;1.72;0.70;;;;;;;33.34;30.70;100570.66;1847843;77;21508;-68
2022/08/07 10:40:10;;;;;;;2.02;0.90;;;;;;;33.38;30.68;100573.80;1846929;78;21054;-68
2022/08/07 10:42:58;;;;;;;0.93;0.90;;;;;;;33.26;30.81;100570.91;1847716;78;21055;-68
2022/08/07 10:45:38;;;;;;;5.90;0.98;;;;;;;33.21;31.03;100573.44;1847720;78;21120;-68
2022/08/07 10:48:12;;;;;;;1.87;1.10;;;;;;;33.09;31.38;100575.95;1846554;78;21497;-68
2022/08/07 10:50:56;;;;;;;2.65;0.95;;;;;;;33.05;31.49;100575.54;1847659;77;21156;-69
2022/08/07 10:53:44;;;;;;;6.37;1.25;;;;;;;33.00;31.63;100567.69;1847862;78;21062;-68
2022/08/07 10:56:41;;;;;;;2.75;0.68;;;;;;;32.89;31.75;100567.27;1847640;78;21114;-68
2022/08/07 10:59:22;;;;;;;1.05;0.80;;;;;;;32.72;31.92;100571.98;1849336;77;21624;-68
2022/08/07 11:02:10;;;;;;;3.47;0.62;;;;;;;32.62;32.19;100582.78;1856804;77;21132;-68
2022/08/07 11:05:15;;;;;;;3.98;1.07;;;;;;;32.70;32.43;100574.41;1856791;77;21109;-68
2022/08/07 11:07:48;;;;;;;0.95;0.75;;;;;;;32.51;32.62;100571.11;1856550;77;21046;-67
2022/08/07 11:10:31;;;;;;;5.78;0.80;;;;;;;32.42;32.53;100568.27;1853088;77;21054;-68
2022/08/07 11:13:08;;;;;;;1.37;0.95;;;;;;;32.10;32.83;100577.55;1836483;77;21128;-68
2022/08/07 11:15:40;;;;;;;6.17;1.22;;;;;;;31.82;32.88;100574.92;1846903;77;21136;-68
2022/08/07 11:18:12;;;;;;;3.97;1.20;;;;;;;31.64;33.33;100579.55;1856864;77;21145;-68
2022/08/07 11:21:04;;;;;;;4.55;1.40;;;;;;;31.71;33.54;100566.81;1855947;77;21834;-68
2022/08/07 11:23:55;;;;;;;3.17;1.60;;;;;;;31.73;33.72;100566.92;1712854;83;21653;-68
2022/08/07 11:26:35;;;;;;;3.95;1.00;;;;;;;31.66;34.02;100563.33;1856017;77;21050;-68
2022/08/07 11:29:10;;;;;;;3.15;1.17;;;;;;;31.63;33.85;100571.92;1856604;77;21058;-68
2022/08/07 11:31:48;;;;;;;2.95;1.30;;;;;;;31.71;33.72;100572.27;1855040;77;21027;-68
2022/08/07 11:34:35;;;;;;;15.40;0.98;;;;;;;31.72;33.77;100577.50;1854691;77;21590;-68
2022/08/07 11:37:41;;;;;;;1.82;1.00;;;;;;;31.68;33.81;100557.69;1791830;77;21141;-67
2022/08/07 11:40:21;;;;;;;1.62;0.85;;;;;;;31.73;34.02;100560.64;1856774;77;21120;-68
2022/08/07 11:43:15;;;;;;;5.62;1.07;;;;;;;31.72;33.80;100559.81;1855320;77;21062;-68
2022/08/07 11:46:04;;;;;;;6.03;0.72;;;;;;;31.64;33.89;100568.67;1856737;77;21132;-68
2022/08/07 11:49:09;;;;;;;1.65;1.05;;;;;;;31.53;33.86;100570.08;1856526;77;21113;-68
2022/08/07 11:51:55;;;;;;;1.32;0.65;;;;;;;31.50;33.88;100556.38;1856476;77;21077;-67
2022/08/07 11:54:59;;;;;;;2.95;0.82;;;;;;;31.51;34.11;100559.92;1856390;77;21157;-67
2022/08/07 11:57:45;;;;;;;1.72;0.88;;;;;;;31.44;34.16;100562.56;1856666;77;21552;-67
2022/08/07 12:00:20;;;;;;;5.67;1.22;;;;;;;31.43;34.26;100551.88;1851674;77;21095;-67
2022/08/07 12:03:09;;;;;;;2.25;0.90;;;;;;;31.53;34.51;100555.11;1844904;78;21034;-67
2022/08/07 12:06:18;;;;;;;0.62;0.62;;;;;;;31.68;34.24;100541.36;1847815;78;21046;-68
2022/08/07 12:08:49;;;;;;;1.15;0.75;;;;;;;31.81;33.98;100540.56;1847095;78;21469;-67